sensor_id;sensor_type;location;lat;lon;timestamp;P1;durP1;ratioP1;P2;durP2;ratioP2
3405;SDS011;10008;48.682;9.016;2022-11-09T00:00:50;7.90;;;4.20;;
3405;SDS011;10008;48.682;9.016;2022-11-09T00:03:17;12.60;;;3.47;;
3405;SDS011;10008;48.682;9.016;2022-11-09T00:05:43;6.67;;;3.10;;
3405;SDS011;10008;48.682;9.016;2022-11-09T00:08:17;6.50;;;3.23;;
3405;SDS011;10008;48.682;9.016;2022-11-09T00:10:43;6.30;;;3.00;;
3405;SDS011;10008;48.682;9.016;2022-11-09T00:13:09;5.33;;;3.10;;
3405;SDS011;10008;48.682;9.016;2022-11-09T00:15:34;5.37;;;2.70;;
3405;SDS011;10008;48.682;9.016;2022-11-09T00:18:00;5.53;;;3.20;;
3405;SDS011;10008;48.682;9.016;2022-11-09T00:20:29;4.60;;;2.40;;
3405;SDS011;10008;48.682;9.016;2022-11-09T00:22:54;5.10;;;2.63;;
3405;SDS011;10008;48.682;9.016;2022-11-09T00:25:21;7.00;;;2.87;;
3405;SDS011;10008;48.682;9.016;2022-11-09T00:27:47;6.33;;;3.30;;
3405;SDS011;10008;48.682;9.016;2022-11-09T00:30:12;5.13;;;2.50;;
3405;SDS011;10008;48.682;9.016;2022-11-09T00:32:38;5.43;;;2.50;;
3405;SDS011;10008;48.682;9.016;2022-11-09T00:35:05;5.30;;;2.60;;
3405;SDS011;10008;48.682;9.016;2022-11-09T00:37:33;7.00;;;2.53;;
3405;SDS011;10008;48.682;9.016;2022-11-09T00:39:59;6.10;;;2.33;;
3405;SDS011;10008;48.682;9.016;2022-11-09T00:42:25;5.63;;;2.37;;
3405;SDS011;10008;48.682;9.016;2022-11-09T00:44:51;6.00;;;2.70;;
3405;SDS011;10008;48.682;9.016;2022-11-09T00:47:17;6.63;;;2.53;;
3405;SDS011;10008;48.682;9.016;2022-11-09T00:49:42;4.70;;;2.40;;
3405;SDS011;10008;48.682;9.016;2022-11-09T00:52:08;8.13;;;2.57;;
3405;SDS011;10008;48.682;9.016;2022-11-09T00:54:34;6.33;;;2.90;;
3405;SDS011;10008;48.682;9.016;2022-11-09T00:57:00;4.87;;;2.30;;
3405;SDS011;10008;48.682;9.016;2022-11-09T00:59:25;6.03;;;2.60;;
3405;SDS011;10008;48.682;9.016;2022-11-09T01:01:51;4.90;;;2.10;;
3405;SDS011;10008;48.682;9.016;2022-11-09T01:04:17;5.00;;;2.73;;
3405;SDS011;10008;48.682;9.016;2022-11-09T01:06:43;4.90;;;2.53;;
3405;SDS011;10008;48.682;9.016;2022-11-09T01:09:08;7.40;;;2.80;;
3405;SDS011;10008;48.682;9.016;2022-11-09T01:11:35;5.03;;;2.67;;
3405;SDS011;10008;48.682;9.016;2022-11-09T01:14:01;5.90;;;2.30;;
3405;SDS011;10008;48.682;9.016;2022-11-09T01:16:27;5.27;;;2.70;;
3405;SDS011;10008;48.682;9.016;2022-11-09T01:18:55;5.37;;;2.40;;
3405;SDS011;10008;48.682;9.016;2022-11-09T01:21:23;5.40;;;2.50;;
3405;SDS011;10008;48.682;9.016;2022-11-09T01:23:50;5.17;;;2.67;;
3405;SDS011;10008;48.682;9.016;2022-11-09T01:26:17;5.50;;;2.50;;
3405;SDS011;10008;48.682;9.016;2022-11-09T01:28:43;6.03;;;2.60;;
3405;SDS011;10008;48.682;9.016;2022-11-09T01:31:13;5.00;;;2.53;;
3405;SDS011;10008;48.682;9.016;2022-11-09T01:33:41;5.50;;;2.60;;
3405;SDS011;10008;48.682;9.016;2022-11-09T01:36:08;5.93;;;2.53;;
3405;SDS011;10008;48.682;9.016;2022-11-09T01:38:36;6.40;;;2.90;;
3405;SDS011;10008;48.682;9.016;2022-11-09T01:41:03;6.00;;;2.40;;
3405;SDS011;10008;48.682;9.016;2022-11-09T01:43:32;7.30;;;2.40;;
3405;SDS011;10008;48.682;9.016;2022-11-09T01:48:53;5.03;;;2.20;;
3405;SDS011;10008;48.682;9.016;2022-11-09T01:51:28;4.70;;;2.30;;
3405;SDS011;10008;48.682;9.016;2022-11-09T01:54:19;8.90;;;2.50;;
3405;SDS011;10008;48.682;9.016;2022-11-09T01:56:53;5.80;;;3.10;;
3405;SDS011;10008;48.682;9.016;2022-11-09T01:59:25;6.57;;;3.20;;
3405;SDS011;10008;48.682;9.016;2022-11-09T02:01:59;6.60;;;3.07;;
3405;SDS011;10008;48.682;9.016;2022-11-09T02:04:26;6.57;;;3.10;;
3405;SDS011;10008;48.682;9.016;2022-11-09T02:06:57;7.80;;;3.50;;
3405;SDS011;10008;48.682;9.016;2022-11-09T02:09:26;8.63;;;3.53;;
3405;SDS011;10008;48.682;9.016;2022-11-09T02:12:02;6.70;;;3.53;;
3405;SDS011;10008;48.682;9.016;2022-11-09T02:14:29;9.97;;;3.73;;
3405;SDS011;10008;48.682;9.016;2022-11-09T02:16:58;7.90;;;3.13;;
3405;SDS011;10008;48.682;9.016;2022-11-09T02:19:23;6.10;;;3.40;;
3405;SDS011;10008;48.682;9.016;2022-11-09T02:21:49;6.07;;;3.57;;
3405;SDS011;10008;48.682;9.016;2022-11-09T02:24:15;7.20;;;3.17;;
3405;SDS011;10008;48.682;9.016;2022-11-09T02:26:43;7.97;;;3.60;;
3405;SDS011;10008;48.682;9.016;2022-11-09T02:29:13;7.00;;;3.00;;
3405;SDS011;10008;48.682;9.016;2022-11-09T02:31:44;6.90;;;3.60;;
3405;SDS011;10008;48.682;9.016;2022-11-09T02:34:14;6.97;;;3.23;;
3405;SDS011;10008;48.682;9.016;2022-11-09T02:36:42;8.17;;;3.50;;
3405;SDS011;10008;48.682;9.016;2022-11-09T02:39:14;6.20;;;3.37;;
3405;SDS011;10008;48.682;9.016;2022-11-09T02:41:44;7.07;;;2.90;;
3405;SDS011;10008;48.682;9.016;2022-11-09T02:44:12;6.90;;;3.00;;
3405;SDS011;10008;48.682;9.016;2022-11-09T02:46:40;8.13;;;3.60;;
3405;SDS011;10008;48.682;9.016;2022-11-09T02:49:06;6.40;;;3.10;;
3405;SDS011;10008;48.682;9.016;2022-11-09T02:51:34;7.80;;;3.40;;
3405;SDS011;10008;48.682;9.016;2022-11-09T02:54:00;8.87;;;3.97;;
3405;SDS011;10008;48.682;9.016;2022-11-09T02:56:26;8.87;;;4.23;;
3405;SDS011;10008;48.682;9.016;2022-11-09T02:58:53;9.77;;;4.40;;
3405;SDS011;10008;48.682;9.016;2022-11-09T03:01:19;8.03;;;4.30;;
3405;SDS011;10008;48.682;9.016;2022-11-09T03:03:45;8.70;;;4.47;;
3405;SDS011;10008;48.682;9.016;2022-11-09T03:06:11;8.40;;;4.70;;
3405;SDS011;10008;48.682;9.016;2022-11-09T03:08:37;8.80;;;4.57;;
3405;SDS011;10008;48.682;9.016;2022-11-09T03:11:02;8.57;;;5.10;;
3405;SDS011;10008;48.682;9.016;2022-11-09T03:13:31;9.90;;;5.30;;
3405;SDS011;10008;48.682;9.016;2022-11-09T03:15:57;7.60;;;5.50;;
3405;SDS011;10008;48.682;9.016;2022-11-09T03:18:34;9.10;;;5.60;;
3405;SDS011;10008;48.682;9.016;2022-11-09T03:21:01;11.53;;;6.60;;
3405;SDS011;10008;48.682;9.016;2022-11-09T03:23:28;9.33;;;6.03;;
3405;SDS011;10008;48.682;9.016;2022-11-09T03:25:55;9.20;;;6.33;;
3405;SDS011;10008;48.682;9.016;2022-11-09T03:28:21;9.70;;;6.70;;
3405;SDS011;10008;48.682;9.016;2022-11-09T03:30:47;10.27;;;6.93;;
3405;SDS011;10008;48.682;9.016;2022-11-09T03:33:13;10.83;;;6.50;;
3405;SDS011;10008;48.682;9.016;2022-11-09T03:35:40;11.00;;;6.53;;
3405;SDS011;10008;48.682;9.016;2022-11-09T03:38:08;11.87;;;7.90;;
3405;SDS011;10008;48.682;9.016;2022-11-09T03:40:34;10.23;;;6.87;;
3405;SDS011;10008;48.682;9.016;2022-11-09T03:43:00;12.23;;;7.20;;
3405;SDS011;10008;48.682;9.016;2022-11-09T03:45:26;12.17;;;6.47;;
3405;SDS011;10008;48.682;9.016;2022-11-09T03:47:52;10.63;;;7.50;;
3405;SDS011;10008;48.682;9.016;2022-11-09T03:50:21;12.20;;;7.90;;
3405;SDS011;10008;48.682;9.016;2022-11-09T03:52:47;12.17;;;8.00;;
3405;SDS011;10008;48.682;9.016;2022-11-09T03:55:13;11.20;;;7.87;;
3405;SDS011;10008;48.682;9.016;2022-11-09T03:57:39;12.70;;;8.83;;
3405;SDS011;10008;48.682;9.016;2022-11-09T04:00:06;10.73;;;7.83;;
3405;SDS011;10008;48.682;9.016;2022-11-09T04:02:36;14.33;;;8.17;;
3405;SDS011;10008;48.682;9.016;2022-11-09T04:05:02;12.07;;;8.77;;
3405;SDS011;10008;48.682;9.016;2022-11-09T04:07:29;13.23;;;8.10;;
3405;SDS011;10008;48.682;9.016;2022-11-09T04:09:55;11.77;;;7.70;;
3405;SDS011;10008;48.682;9.016;2022-11-09T04:12:21;12.03;;;7.87;;
3405;SDS011;10008;48.682;9.016;2022-11-09T04:14:47;12.10;;;7.87;;
3405;SDS011;10008;48.682;9.016;2022-11-09T04:17:13;9.43;;;7.43;;
3405;SDS011;10008;48.682;9.016;2022-11-09T04:19:39;10.83;;;8.20;;
3405;SDS011;10008;48.682;9.016;2022-11-09T04:22:05;9.90;;;7.20;;
3405;SDS011;10008;48.682;9.016;2022-11-09T04:24:30;12.00;;;8.00;;
3405;SDS011;10008;48.682;9.016;2022-11-09T04:26:56;12.40;;;8.93;;
3405;SDS011;10008;48.682;9.016;2022-11-09T04:29:22;11.93;;;7.23;;
3405;SDS011;10008;48.682;9.016;2022-11-09T04:31:48;10.50;;;7.93;;
3405;SDS011;10008;48.682;9.016;2022-11-09T04:34:14;12.67;;;8.37;;
3405;SDS011;10008;48.682;9.016;2022-11-09T04:36:41;10.30;;;5.93;;
3405;SDS011;10008;48.682;9.016;2022-11-09T04:39:07;8.80;;;6.20;;
3405;SDS011;10008;48.682;9.016;2022-11-09T04:41:33;11.23;;;6.87;;
3405;SDS011;10008;48.682;9.016;2022-11-09T04:43:59;10.90;;;6.30;;
3405;SDS011;10008;48.682;9.016;2022-11-09T04:46:25;11.00;;;6.50;;
3405;SDS011;10008;48.682;9.016;2022-11-09T04:48:51;10.23;;;6.70;;
3405;SDS011;10008;48.682;9.016;2022-11-09T04:51:17;12.97;;;6.80;;
3405;SDS011;10008;48.682;9.016;2022-11-09T04:53:43;10.80;;;6.90;;
3405;SDS011;10008;48.682;9.016;2022-11-09T04:56:09;11.90;;;7.40;;
3405;SDS011;10008;48.682;9.016;2022-11-09T04:58:35;11.63;;;7.63;;
3405;SDS011;10008;48.682;9.016;2022-11-09T05:01:03;11.23;;;7.43;;
3405;SDS011;10008;48.682;9.016;2022-11-09T05:03:30;13.10;;;8.53;;
3405;SDS011;10008;48.682;9.016;2022-11-09T05:05:56;11.47;;;8.00;;
3405;SDS011;10008;48.682;9.016;2022-11-09T05:08:22;12.50;;;7.90;;
3405;SDS011;10008;48.682;9.016;2022-11-09T05:10:48;11.23;;;8.00;;
3405;SDS011;10008;48.682;9.016;2022-11-09T05:13:14;13.17;;;8.97;;
3405;SDS011;10008;48.682;9.016;2022-11-09T05:15:40;10.13;;;7.57;;
3405;SDS011;10008;48.682;9.016;2022-11-09T05:18:05;14.20;;;8.63;;
3405;SDS011;10008;48.682;9.016;2022-11-09T05:20:32;15.93;;;9.20;;
3405;SDS011;10008;48.682;9.016;2022-11-09T05:22:59;13.53;;;9.13;;
3405;SDS011;10008;48.682;9.016;2022-11-09T05:25:44;13.10;;;7.83;;
3405;SDS011;10008;48.682;9.016;2022-11-09T05:28:10;11.57;;;8.63;;
3405;SDS011;10008;48.682;9.016;2022-11-09T05:30:36;13.83;;;8.83;;
3405;SDS011;10008;48.682;9.016;2022-11-09T05:33:02;12.33;;;9.00;;
3405;SDS011;10008;48.682;9.016;2022-11-09T05:35:28;13.73;;;9.83;;
3405;SDS011;10008;48.682;9.016;2022-11-09T05:37:54;13.70;;;9.17;;
3405;SDS011;10008;48.682;9.016;2022-11-09T05:40:20;11.30;;;8.60;;
3405;SDS011;10008;48.682;9.016;2022-11-09T05:42:46;12.83;;;8.30;;
3405;SDS011;10008;48.682;9.016;2022-11-09T05:45:13;14.10;;;8.80;;
3405;SDS011;10008;48.682;9.016;2022-11-09T05:47:42;13.90;;;8.30;;
3405;SDS011;10008;48.682;9.016;2022-11-09T05:50:11;12.03;;;9.00;;
3405;SDS011;10008;48.682;9.016;2022-11-09T05:52:38;18.43;;;9.83;;
3405;SDS011;10008;48.682;9.016;2022-11-09T05:55:04;15.67;;;10.57;;
3405;SDS011;10008;48.682;9.016;2022-11-09T05:57:31;17.90;;;9.87;;
3405;SDS011;10008;48.682;9.016;2022-11-09T05:59:56;12.63;;;9.60;;
3405;SDS011;10008;48.682;9.016;2022-11-09T06:02:22;16.57;;;10.70;;
3405;SDS011;10008;48.682;9.016;2022-11-09T06:04:48;15.97;;;9.93;;
3405;SDS011;10008;48.682;9.016;2022-11-09T06:07:14;18.40;;;10.50;;
3405;SDS011;10008;48.682;9.016;2022-11-09T06:09:40;13.30;;;9.53;;
3405;SDS011;10008;48.682;9.016;2022-11-09T06:12:06;13.70;;;10.30;;
3405;SDS011;10008;48.682;9.016;2022-11-09T06:14:32;11.97;;;8.57;;
3405;SDS011;10008;48.682;9.016;2022-11-09T06:16:58;13.83;;;9.47;;
3405;SDS011;10008;48.682;9.016;2022-11-09T06:19:24;22.83;;;16.60;;
3405;SDS011;10008;48.682;9.016;2022-11-09T06:21:49;18.73;;;13.20;;
3405;SDS011;10008;48.682;9.016;2022-11-09T06:24:15;18.83;;;11.10;;
3405;SDS011;10008;48.682;9.016;2022-11-09T06:26:41;15.50;;;11.07;;
3405;SDS011;10008;48.682;9.016;2022-11-09T06:29:07;18.23;;;11.27;;
3405;SDS011;10008;48.682;9.016;2022-11-09T06:31:34;15.27;;;9.33;;
3405;SDS011;10008;48.682;9.016;2022-11-09T06:34:00;16.13;;;10.20;;
3405;SDS011;10008;48.682;9.016;2022-11-09T06:36:27;16.40;;;10.07;;
3405;SDS011;10008;48.682;9.016;2022-11-09T06:38:53;13.70;;;9.13;;
3405;SDS011;10008;48.682;9.016;2022-11-09T06:41:19;11.97;;;9.37;;
3405;SDS011;10008;48.682;9.016;2022-11-09T06:43:44;12.60;;;8.53;;
3405;SDS011;10008;48.682;9.016;2022-11-09T06:46:11;13.83;;;7.90;;
3405;SDS011;10008;48.682;9.016;2022-11-09T06:48:37;19.53;;;8.60;;
3405;SDS011;10008;48.682;9.016;2022-11-09T06:51:03;12.80;;;7.90;;
3405;SDS011;10008;48.682;9.016;2022-11-09T06:53:30;10.40;;;7.20;;
3405;SDS011;10008;48.682;9.016;2022-11-09T06:55:58;13.10;;;8.47;;
3405;SDS011;10008;48.682;9.016;2022-11-09T06:58:25;12.03;;;7.50;;
3405;SDS011;10008;48.682;9.016;2022-11-09T07:00:51;12.33;;;7.97;;
3405;SDS011;10008;48.682;9.016;2022-11-09T07:03:17;11.47;;;8.97;;
3405;SDS011;10008;48.682;9.016;2022-11-09T07:05:44;10.70;;;7.37;;
3405;SDS011;10008;48.682;9.016;2022-11-09T07:08:12;10.87;;;6.33;;
3405;SDS011;10008;48.682;9.016;2022-11-09T07:10:38;13.33;;;7.63;;
3405;SDS011;10008;48.682;9.016;2022-11-09T07:13:05;12.80;;;7.23;;
3405;SDS011;10008;48.682;9.016;2022-11-09T07:15:37;13.30;;;8.97;;
3405;SDS011;10008;48.682;9.016;2022-11-09T07:18:06;11.30;;;7.43;;
3405;SDS011;10008;48.682;9.016;2022-11-09T07:20:37;17.57;;;8.97;;
3405;SDS011;10008;48.682;9.016;2022-11-09T07:23:06;13.73;;;8.40;;
3405;SDS011;10008;48.682;9.016;2022-11-09T07:25:31;13.37;;;9.00;;
3405;SDS011;10008;48.682;9.016;2022-11-09T07:28:04;14.30;;;9.83;;
3405;SDS011;10008;48.682;9.016;2022-11-09T07:30:31;15.20;;;10.10;;
3405;SDS011;10008;48.682;9.016;2022-11-09T07:32:59;11.80;;;9.37;;
3405;SDS011;10008;48.682;9.016;2022-11-09T07:35:25;12.97;;;9.90;;
3405;SDS011;10008;48.682;9.016;2022-11-09T07:37:51;16.53;;;10.23;;
3405;SDS011;10008;48.682;9.016;2022-11-09T07:40:17;13.57;;;9.73;;
3405;SDS011;10008;48.682;9.016;2022-11-09T07:42:43;13.23;;;8.63;;
3405;SDS011;10008;48.682;9.016;2022-11-09T07:45:12;13.40;;;10.43;;
3405;SDS011;10008;48.682;9.016;2022-11-09T07:47:38;16.47;;;10.53;;
3405;SDS011;10008;48.682;9.016;2022-11-09T07:50:04;15.47;;;11.00;;
3405;SDS011;10008;48.682;9.016;2022-11-09T07:52:30;13.97;;;10.57;;
3405;SDS011;10008;48.682;9.016;2022-11-09T07:54:55;18.07;;;11.60;;
3405;SDS011;10008;48.682;9.016;2022-11-09T07:57:21;17.33;;;12.73;;
3405;SDS011;10008;48.682;9.016;2022-11-09T07:59:47;19.17;;;12.07;;
3405;SDS011;10008;48.682;9.016;2022-11-09T08:02:13;14.13;;;10.40;;
3405;SDS011;10008;48.682;9.016;2022-11-09T08:04:38;14.27;;;9.40;;
3405;SDS011;10008;48.682;9.016;2022-11-09T08:07:04;12.03;;;9.23;;
3405;SDS011;10008;48.682;9.016;2022-11-09T08:09:30;13.57;;;9.50;;
3405;SDS011;10008;48.682;9.016;2022-11-09T08:11:55;14.20;;;9.70;;
3405;SDS011;10008;48.682;9.016;2022-11-09T08:14:21;13.50;;;10.53;;
3405;SDS011;10008;48.682;9.016;2022-11-09T08:16:47;11.20;;;6.00;;
3405;SDS011;10008;48.682;9.016;2022-11-09T08:19:13;11.20;;;6.27;;
3405;SDS011;10008;48.682;9.016;2022-11-09T08:21:38;7.87;;;5.70;;
3405;SDS011;10008;48.682;9.016;2022-11-09T08:24:04;11.77;;;5.87;;
3405;SDS011;10008;48.682;9.016;2022-11-09T08:26:30;10.93;;;5.60;;
3405;SDS011;10008;48.682;9.016;2022-11-09T08:28:57;7.90;;;5.07;;
3405;SDS011;10008;48.682;9.016;2022-11-09T08:31:22;8.67;;;4.87;;
3405;SDS011;10008;48.682;9.016;2022-11-09T08:33:48;7.27;;;4.70;;
3405;SDS011;10008;48.682;9.016;2022-11-09T08:36:15;7.90;;;4.30;;
3405;SDS011;10008;48.682;9.016;2022-11-09T08:38:42;7.00;;;3.87;;
3405;SDS011;10008;48.682;9.016;2022-11-09T08:41:09;9.00;;;4.47;;
3405;SDS011;10008;48.682;9.016;2022-11-09T08:43:36;6.80;;;4.00;;
3405;SDS011;10008;48.682;9.016;2022-11-09T08:46:02;6.00;;;3.80;;
3405;SDS011;10008;48.682;9.016;2022-11-09T08:48:28;6.90;;;3.70;;
3405;SDS011;10008;48.682;9.016;2022-11-09T08:50:54;6.60;;;3.80;;
3405;SDS011;10008;48.682;9.016;2022-11-09T08:53:23;6.17;;;3.47;;
3405;SDS011;10008;48.682;9.016;2022-11-09T08:55:50;6.73;;;3.97;;
3405;SDS011;10008;48.682;9.016;2022-11-09T08:58:16;7.50;;;4.07;;
3405;SDS011;10008;48.682;9.016;2022-11-09T09:00:43;12.50;;;8.10;;
3405;SDS011;10008;48.682;9.016;2022-11-09T09:03:09;9.43;;;5.00;;
3405;SDS011;10008;48.682;9.016;2022-11-09T09:05:35;5.93;;;3.23;;
3405;SDS011;10008;48.682;9.016;2022-11-09T09:08:01;5.63;;;2.60;;
3405;SDS011;10008;48.682;9.016;2022-11-09T09:10:28;5.07;;;3.20;;
3405;SDS011;10008;48.682;9.016;2022-11-09T09:12:56;4.67;;;2.37;;
3405;SDS011;10008;48.682;9.016;2022-11-09T09:15:22;4.53;;;1.90;;
3405;SDS011;10008;48.682;9.016;2022-11-09T09:17:49;4.63;;;1.63;;
3405;SDS011;10008;48.682;9.016;2022-11-09T09:20:15;3.37;;;1.10;;
3405;SDS011;10008;48.682;9.016;2022-11-09T09:22:42;3.90;;;1.60;;
3405;SDS011;10008;48.682;9.016;2022-11-09T09:25:08;6.87;;;1.60;;
3405;SDS011;10008;48.682;9.016;2022-11-09T09:27:34;4.00;;;1.50;;
3405;SDS011;10008;48.682;9.016;2022-11-09T09:30:00;3.30;;;1.27;;
3405;SDS011;10008;48.682;9.016;2022-11-09T09:32:25;4.10;;;1.50;;
3405;SDS011;10008;48.682;9.016;2022-11-09T09:34:51;5.00;;;2.03;;
3405;SDS011;10008;48.682;9.016;2022-11-09T09:37:17;5.10;;;1.70;;
3405;SDS011;10008;48.682;9.016;2022-11-09T09:39:43;4.10;;;1.80;;
3405;SDS011;10008;48.682;9.016;2022-11-09T09:42:13;4.47;;;2.00;;
3405;SDS011;10008;48.682;9.016;2022-11-09T09:45:01;5.47;;;2.37;;
3405;SDS011;10008;48.682;9.016;2022-11-09T09:47:45;8.40;;;2.27;;
3405;SDS011;10008;48.682;9.016;2022-11-09T09:50:20;5.50;;;2.23;;
3405;SDS011;10008;48.682;9.016;2022-11-09T09:52:51;6.43;;;2.20;;
3405;SDS011;10008;48.682;9.016;2022-11-09T09:55:33;5.83;;;3.00;;
3405;SDS011;10008;48.682;9.016;2022-11-09T10:00:47;5.77;;;3.00;;
3405;SDS011;10008;48.682;9.016;2022-11-09T10:03:19;6.90;;;3.23;;
3405;SDS011;10008;48.682;9.016;2022-11-09T10:06:11;5.97;;;2.70;;
3405;SDS011;10008;48.682;9.016;2022-11-09T10:11:39;7.67;;;3.43;;
3405;SDS011;10008;48.682;9.016;2022-11-09T10:14:23;5.37;;;2.80;;
3405;SDS011;10008;48.682;9.016;2022-11-09T10:16:59;4.60;;;2.57;;
3405;SDS011;10008;48.682;9.016;2022-11-09T10:27:51;7.23;;;2.73;;
3405;SDS011;10008;48.682;9.016;2022-11-09T10:30:24;6.47;;;2.80;;
3405;SDS011;10008;48.682;9.016;2022-11-09T10:32:55;5.90;;;2.90;;
3405;SDS011;10008;48.682;9.016;2022-11-09T10:35:28;7.43;;;3.17;;
3405;SDS011;10008;48.682;9.016;2022-11-09T10:37:56;6.27;;;2.97;;
3405;SDS011;10008;48.682;9.016;2022-11-09T10:43:32;5.90;;;3.23;;
3405;SDS011;10008;48.682;9.016;2022-11-09T10:46:16;7.50;;;3.17;;
3405;SDS011;10008;48.682;9.016;2022-11-09T10:49:07;5.30;;;2.90;;
3405;SDS011;10008;48.682;9.016;2022-11-09T10:52:02;6.00;;;3.20;;
3405;SDS011;10008;48.682;9.016;2022-11-09T10:54:48;5.97;;;2.70;;
3405;SDS011;10008;48.682;9.016;2022-11-09T10:57:33;6.37;;;3.17;;
3405;SDS011;10008;48.682;9.016;2022-11-09T11:00:18;11.50;;;3.20;;
3405;SDS011;10008;48.682;9.016;2022-11-09T11:03:10;5.40;;;2.93;;
3405;SDS011;10008;48.682;9.016;2022-11-09T11:06:08;6.23;;;3.40;;
3405;SDS011;10008;48.682;9.016;2022-11-09T11:11:48;4.83;;;2.50;;
3405;SDS011;10008;48.682;9.016;2022-11-09T11:14:56;5.43;;;2.90;;
3405;SDS011;10008;48.682;9.016;2022-11-09T11:17:41;6.40;;;3.13;;
3405;SDS011;10008;48.682;9.016;2022-11-09T11:20:30;5.70;;;3.10;;
3405;SDS011;10008;48.682;9.016;2022-11-09T11:23:17;5.70;;;2.50;;
3405;SDS011;10008;48.682;9.016;2022-11-09T11:32:00;6.47;;;2.90;;
3405;SDS011;10008;48.682;9.016;2022-11-09T11:34:46;5.90;;;3.13;;
3405;SDS011;10008;48.682;9.016;2022-11-09T11:55:47;5.07;;;2.60;;
3405;SDS011;10008;48.682;9.016;2022-11-09T12:04:39;5.87;;;2.37;;
3405;SDS011;10008;48.682;9.016;2022-11-09T12:10:58;5.20;;;2.40;;
3405;SDS011;10008;48.682;9.016;2022-11-09T12:23:24;6.03;;;1.90;;
3405;SDS011;10008;48.682;9.016;2022-11-09T12:26:21;4.57;;;2.37;;
3405;SDS011;10008;48.682;9.016;2022-11-09T12:29:20;7.47;;;2.40;;
3405;SDS011;10008;48.682;9.016;2022-11-09T12:35:32;5.30;;;1.80;;
3405;SDS011;10008;48.682;9.016;2022-11-09T12:41:13;6.17;;;2.40;;
3405;SDS011;10008;48.682;9.016;2022-11-09T12:44:05;7.70;;;2.70;;
3405;SDS011;10008;48.682;9.016;2022-11-09T12:47:03;5.97;;;2.67;;
3405;SDS011;10008;48.682;9.016;2022-11-09T12:49:52;7.23;;;2.43;;
3405;SDS011;10008;48.682;9.016;2022-11-09T12:52:38;8.87;;;3.57;;
3405;SDS011;10008;48.682;9.016;2022-11-09T12:55:31;5.80;;;2.20;;
3405;SDS011;10008;48.682;9.016;2022-11-09T12:58:23;6.50;;;2.77;;
3405;SDS011;10008;48.682;9.016;2022-11-09T13:04:11;9.30;;;2.60;;
3405;SDS011;10008;48.682;9.016;2022-11-09T13:07:15;5.47;;;2.67;;
3405;SDS011;10008;48.682;9.016;2022-11-09T13:10:42;4.70;;;2.70;;
3405;SDS011;10008;48.682;9.016;2022-11-09T13:13:22;4.50;;;2.67;;
3405;SDS011;10008;48.682;9.016;2022-11-09T13:31:17;10.00;;;4.23;;
3405;SDS011;10008;48.682;9.016;2022-11-09T13:34:42;8.90;;;3.37;;
3405;SDS011;10008;48.682;9.016;2022-11-09T13:37:34;7.30;;;2.97;;
3405;SDS011;10008;48.682;9.016;2022-11-09T13:43:14;5.73;;;2.80;;
3405;SDS011;10008;48.682;9.016;2022-11-09T13:46:04;6.10;;;3.57;;
3405;SDS011;10008;48.682;9.016;2022-11-09T13:55:36;6.27;;;2.47;;
3405;SDS011;10008;48.682;9.016;2022-11-09T14:04:19;7.57;;;3.50;;
3405;SDS011;10008;48.682;9.016;2022-11-09T14:22:34;8.13;;;3.00;;
3405;SDS011;10008;48.682;9.016;2022-11-09T14:25:19;6.67;;;3.50;;
3405;SDS011;10008;48.682;9.016;2022-11-09T14:31:21;6.10;;;3.10;;
3405;SDS011;10008;48.682;9.016;2022-11-09T14:34:11;9.43;;;4.07;;
3405;SDS011;10008;48.682;9.016;2022-11-09T14:36:58;5.60;;;3.27;;
3405;SDS011;10008;48.682;9.016;2022-11-09T14:39:45;6.50;;;3.20;;
3405;SDS011;10008;48.682;9.016;2022-11-09T14:42:32;7.80;;;3.77;;
3405;SDS011;10008;48.682;9.016;2022-11-09T14:45:16;6.50;;;3.90;;
3405;SDS011;10008;48.682;9.016;2022-11-09T14:48:00;6.90;;;3.60;;
3405;SDS011;10008;48.682;9.016;2022-11-09T14:50:45;5.30;;;3.30;;
3405;SDS011;10008;48.682;9.016;2022-11-09T14:53:36;7.47;;;3.70;;
3405;SDS011;10008;48.682;9.016;2022-11-09T14:56:24;8.53;;;4.60;;
3405;SDS011;10008;48.682;9.016;2022-11-09T14:59:16;6.53;;;4.20;;
3405;SDS011;10008;48.682;9.016;2022-11-09T15:02:14;8.53;;;4.00;;
3405;SDS011;10008;48.682;9.016;2022-11-09T15:05:01;6.10;;;3.83;;
3405;SDS011;10008;48.682;9.016;2022-11-09T15:07:50;5.97;;;3.50;;
3405;SDS011;10008;48.682;9.016;2022-11-09T15:10:34;7.67;;;4.10;;
3405;SDS011;10008;48.682;9.016;2022-11-09T15:13:36;6.33;;;3.90;;
3405;SDS011;10008;48.682;9.016;2022-11-09T15:16:25;7.20;;;5.00;;
3405;SDS011;10008;48.682;9.016;2022-11-09T15:19:21;9.33;;;5.63;;
3405;SDS011;10008;48.682;9.016;2022-11-09T15:25:34;8.23;;;3.50;;
3405;SDS011;10008;48.682;9.016;2022-11-09T15:28:42;6.33;;;4.00;;
3405;SDS011;10008;48.682;9.016;2022-11-09T15:31:28;9.00;;;4.10;;
3405;SDS011;10008;48.682;9.016;2022-11-09T15:34:20;11.83;;;6.70;;
3405;SDS011;10008;48.682;9.016;2022-11-09T15:37:19;11.80;;;5.87;;
3405;SDS011;10008;48.682;9.016;2022-11-09T15:40:17;8.17;;;5.27;;
3405;SDS011;10008;48.682;9.016;2022-11-09T15:43:04;6.10;;;4.13;;
3405;SDS011;10008;48.682;9.016;2022-11-09T15:45:48;7.40;;;4.70;;
3405;SDS011;10008;48.682;9.016;2022-11-09T15:48:33;6.97;;;4.40;;
3405;SDS011;10008;48.682;9.016;2022-11-09T15:51:19;6.03;;;3.20;;
3405;SDS011;10008;48.682;9.016;2022-11-09T15:54:03;5.53;;;3.20;;
3405;SDS011;10008;48.682;9.016;2022-11-09T15:56:48;7.00;;;3.53;;
3405;SDS011;10008;48.682;9.016;2022-11-09T15:59:33;5.63;;;3.40;;
3405;SDS011;10008;48.682;9.016;2022-11-09T16:02:19;5.07;;;2.63;;
3405;SDS011;10008;48.682;9.016;2022-11-09T16:05:03;6.47;;;3.10;;
3405;SDS011;10008;48.682;9.016;2022-11-09T16:07:48;8.13;;;3.37;;
3405;SDS011;10008;48.682;9.016;2022-11-09T16:10:35;6.33;;;2.30;;
3405;SDS011;10008;48.682;9.016;2022-11-09T16:13:22;5.10;;;2.40;;
3405;SDS011;10008;48.682;9.016;2022-11-09T16:16:07;6.63;;;2.70;;
3405;SDS011;10008;48.682;9.016;2022-11-09T16:18:53;5.23;;;2.43;;
3405;SDS011;10008;48.682;9.016;2022-11-09T16:21:39;5.10;;;2.33;;
3405;SDS011;10008;48.682;9.016;2022-11-09T16:24:24;5.17;;;2.30;;
3405;SDS011;10008;48.682;9.016;2022-11-09T16:27:08;5.83;;;2.20;;
3405;SDS011;10008;48.682;9.016;2022-11-09T16:29:52;8.10;;;2.83;;
3405;SDS011;10008;48.682;9.016;2022-11-09T16:32:37;8.03;;;3.00;;
3405;SDS011;10008;48.682;9.016;2022-11-09T16:35:21;5.43;;;2.93;;
3405;SDS011;10008;48.682;9.016;2022-11-09T16:38:05;6.90;;;3.10;;
3405;SDS011;10008;48.682;9.016;2022-11-09T16:40:50;6.77;;;3.60;;
3405;SDS011;10008;48.682;9.016;2022-11-09T16:43:34;5.83;;;3.57;;
3405;SDS011;10008;48.682;9.016;2022-11-09T16:46:21;8.23;;;4.07;;
3405;SDS011;10008;48.682;9.016;2022-11-09T16:49:08;7.10;;;4.43;;
3405;SDS011;10008;48.682;9.016;2022-11-09T16:51:52;7.50;;;4.47;;
3405;SDS011;10008;48.682;9.016;2022-11-09T16:54:36;5.90;;;3.80;;
3405;SDS011;10008;48.682;9.016;2022-11-09T16:57:21;7.67;;;4.20;;
3405;SDS011;10008;48.682;9.016;2022-11-09T17:00:05;6.33;;;3.77;;
3405;SDS011;10008;48.682;9.016;2022-11-09T17:02:50;9.33;;;5.10;;
3405;SDS011;10008;48.682;9.016;2022-11-09T17:05:35;8.50;;;5.63;;
3405;SDS011;10008;48.682;9.016;2022-11-09T17:08:19;8.00;;;5.73;;
3405;SDS011;10008;48.682;9.016;2022-11-09T17:11:05;6.87;;;4.70;;
3405;SDS011;10008;48.682;9.016;2022-11-09T17:13:57;7.10;;;4.73;;
3405;SDS011;10008;48.682;9.016;2022-11-09T17:16:42;7.50;;;4.80;;
3405;SDS011;10008;48.682;9.016;2022-11-09T17:19:30;12.37;;;8.00;;
3405;SDS011;10008;48.682;9.016;2022-11-09T17:22:16;14.33;;;11.23;;
3405;SDS011;10008;48.682;9.016;2022-11-09T17:25:01;14.77;;;12.00;;
3405;SDS011;10008;48.682;9.016;2022-11-09T17:27:45;9.13;;;6.60;;
3405;SDS011;10008;48.682;9.016;2022-11-09T17:30:29;10.43;;;7.30;;
3405;SDS011;10008;48.682;9.016;2022-11-09T17:33:14;9.90;;;7.17;;
3405;SDS011;10008;48.682;9.016;2022-11-09T17:36:03;13.07;;;9.67;;
3405;SDS011;10008;48.682;9.016;2022-11-09T17:38:50;12.30;;;9.20;;
3405;SDS011;10008;48.682;9.016;2022-11-09T17:41:34;11.00;;;7.70;;
3405;SDS011;10008;48.682;9.016;2022-11-09T17:44:18;9.20;;;7.00;;